sensor_id;sensor_type;location;lat;lon;timestamp;P1;durP1;ratioP1;P2;durP2;ratioP2
11845;SDS011;5982;37.494;-8.758;2022-10-16T00:01:13;601.87;;;554.57;;
11845;SDS011;5982;37.494;-8.758;2022-10-16T00:03:45;611.35;;;564.00;;
11845;SDS011;5982;37.494;-8.758;2022-10-16T00:06:15;601.25;;;553.97;;
11845;SDS011;5982;37.494;-8.758;2022-10-16T00:08:47;606.50;;;559.13;;
11845;SDS011;5982;37.494;-8.758;2022-10-16T00:11:17;601.75;;;554.60;;
11845;SDS011;5982;37.494;-8.758;2022-10-16T00:13:48;600.83;;;553.70;;
11845;SDS011;5982;37.494;-8.758;2022-10-16T00:16:18;596.92;;;549.92;;
11845;SDS011;5982;37.494;-8.758;2022-10-16T00:18:47;595.47;;;548.28;;
11845;SDS011;5982;37.494;-8.758;2022-10-16T00:21:16;601.65;;;554.65;;
11845;SDS011;5982;37.494;-8.758;2022-10-16T00:23:49;605.47;;;558.30;;
11845;SDS011;5982;37.494;-8.758;2022-10-16T00:26:18;605.22;;;558.03;;
11845;SDS011;5982;37.494;-8.758;2022-10-16T00:28:47;604.27;;;557.03;;
11845;SDS011;5982;37.494;-8.758;2022-10-16T00:31:16;605.85;;;558.55;;
11845;SDS011;5982;37.494;-8.758;2022-10-16T00:33:47;612.25;;;565.03;;
11845;SDS011;5982;37.494;-8.758;2022-10-16T00:36:18;606.92;;;559.63;;
11845;SDS011;5982;37.494;-8.758;2022-10-16T00:38:51;615.45;;;567.97;;
11845;SDS011;5982;37.494;-8.758;2022-10-16T00:41:20;609.15;;;561.55;;
11845;SDS011;5982;37.494;-8.758;2022-10-16T00:43:50;617.60;;;570.10;;
11845;SDS011;5982;37.494;-8.758;2022-10-16T00:46:20;617.10;;;569.53;;
11845;SDS011;5982;37.494;-8.758;2022-10-16T00:48:51;617.42;;;569.85;;
11845;SDS011;5982;37.494;-8.758;2022-10-16T00:51:26;618.35;;;570.95;;
11845;SDS011;5982;37.494;-8.758;2022-10-16T00:54:00;613.90;;;566.60;;
11845;SDS011;5982;37.494;-8.758;2022-10-16T00:56:31;614.17;;;566.75;;
11845;SDS011;5982;37.494;-8.758;2022-10-16T00:59:01;614.72;;;567.42;;
11845;SDS011;5982;37.494;-8.758;2022-10-16T01:01:33;613.95;;;566.55;;
11845;SDS011;5982;37.494;-8.758;2022-10-16T01:04:02;610.65;;;563.30;;
11845;SDS011;5982;37.494;-8.758;2022-10-16T01:06:32;610.40;;;563.13;;
11845;SDS011;5982;37.494;-8.758;2022-10-16T01:09:11;614.28;;;566.78;;
11845;SDS011;5982;37.494;-8.758;2022-10-16T01:11:46;610.53;;;563.17;;
11845;SDS011;5982;37.494;-8.758;2022-10-16T01:14:26;617.63;;;570.23;;
11845;SDS011;5982;37.494;-8.758;2022-10-16T01:17:04;621.53;;;574.10;;
11845;SDS011;5982;37.494;-8.758;2022-10-16T01:19:42;617.05;;;569.70;;
11845;SDS011;5982;37.494;-8.758;2022-10-16T01:22:29;620.85;;;573.35;;
11845;SDS011;5982;37.494;-8.758;2022-10-16T01:25:09;625.88;;;578.35;;
11845;SDS011;5982;37.494;-8.758;2022-10-16T01:27:48;625.10;;;577.60;;
11845;SDS011;5982;37.494;-8.758;2022-10-16T01:30:18;641.22;;;593.42;;
11845;SDS011;5982;37.494;-8.758;2022-10-16T01:32:50;637.30;;;589.60;;
11845;SDS011;5982;37.494;-8.758;2022-10-16T01:35:25;648.10;;;600.10;;
11845;SDS011;5982;37.494;-8.758;2022-10-16T01:37:58;648.80;;;600.70;;
11845;SDS011;5982;37.494;-8.758;2022-10-16T01:40:31;641.85;;;593.95;;
11845;SDS011;5982;37.494;-8.758;2022-10-16T01:43:05;641.90;;;593.97;;
11845;SDS011;5982;37.494;-8.758;2022-10-16T01:45:37;635.90;;;588.20;;
11845;SDS011;5982;37.494;-8.758;2022-10-16T01:48:07;638.95;;;591.20;;
11845;SDS011;5982;37.494;-8.758;2022-10-16T01:50:39;638.63;;;590.92;;
11845;SDS011;5982;37.494;-8.758;2022-10-16T01:53:11;638.55;;;590.83;;
11845;SDS011;5982;37.494;-8.758;2022-10-16T01:55:42;641.90;;;594.10;;
11845;SDS011;5982;37.494;-8.758;2022-10-16T01:58:16;641.75;;;594.00;;
11845;SDS011;5982;37.494;-8.758;2022-10-16T02:00:44;643.97;;;596.22;;
11845;SDS011;5982;37.494;-8.758;2022-10-16T02:03:15;636.90;;;589.30;;
11845;SDS011;5982;37.494;-8.758;2022-10-16T02:05:46;635.53;;;587.90;;
11845;SDS011;5982;37.494;-8.758;2022-10-16T02:08:17;634.47;;;586.78;;
11845;SDS011;5982;37.494;-8.758;2022-10-16T02:10:46;639.23;;;591.53;;
11845;SDS011;5982;37.494;-8.758;2022-10-16T02:13:17;643.33;;;595.53;;
11845;SDS011;5982;37.494;-8.758;2022-10-16T02:15:50;636.95;;;589.25;;
11845;SDS011;5982;37.494;-8.758;2022-10-16T02:18:18;636.20;;;588.50;;
11845;SDS011;5982;37.494;-8.758;2022-10-16T02:20:48;641.63;;;593.95;;
11845;SDS011;5982;37.494;-8.758;2022-10-16T02:23:24;645.08;;;597.17;;
11845;SDS011;5982;37.494;-8.758;2022-10-16T02:26:01;652.08;;;604.05;;
11845;SDS011;5982;37.494;-8.758;2022-10-16T02:28:36;639.22;;;591.53;;
11845;SDS011;5982;37.494;-8.758;2022-10-16T02:31:10;650.03;;;602.07;;
11845;SDS011;5982;37.494;-8.758;2022-10-16T02:33:43;649.30;;;601.38;;
11845;SDS011;5982;37.494;-8.758;2022-10-16T02:36:13;645.55;;;597.75;;
11845;SDS011;5982;37.494;-8.758;2022-10-16T02:38:42;640.28;;;592.47;;
11845;SDS011;5982;37.494;-8.758;2022-10-16T02:41:11;639.92;;;592.22;;
11845;SDS011;5982;37.494;-8.758;2022-10-16T02:43:42;641.83;;;593.92;;
11845;SDS011;5982;37.494;-8.758;2022-10-16T02:46:11;644.13;;;596.28;;
11845;SDS011;5982;37.494;-8.758;2022-10-16T02:48:39;643.30;;;595.47;;
11845;SDS011;5982;37.494;-8.758;2022-10-16T02:51:07;640.65;;;592.85;;
11845;SDS011;5982;37.494;-8.758;2022-10-16T02:53:35;634.42;;;586.83;;
11845;SDS011;5982;37.494;-8.758;2022-10-16T02:56:03;642.20;;;594.50;;
11845;SDS011;5982;37.494;-8.758;2022-10-16T02:58:32;637.70;;;590.00;;
11845;SDS011;5982;37.494;-8.758;2022-10-16T03:01:01;640.72;;;592.85;;
11845;SDS011;5982;37.494;-8.758;2022-10-16T03:03:30;641.30;;;593.50;;
11845;SDS011;5982;37.494;-8.758;2022-10-16T03:05:58;647.57;;;599.57;;
11845;SDS011;5982;37.494;-8.758;2022-10-16T03:08:26;644.85;;;596.95;;
11845;SDS011;5982;37.494;-8.758;2022-10-16T03:10:54;648.20;;;600.00;;
11845;SDS011;5982;37.494;-8.758;2022-10-16T03:13:22;651.17;;;603.20;;
11845;SDS011;5982;37.494;-8.758;2022-10-16T03:15:51;652.67;;;604.58;;
11845;SDS011;5982;37.494;-8.758;2022-10-16T03:18:20;651.55;;;603.42;;
11845;SDS011;5982;37.494;-8.758;2022-10-16T03:20:49;658.78;;;610.47;;
11845;SDS011;5982;37.494;-8.758;2022-10-16T03:23:17;648.83;;;600.87;;
11845;SDS011;5982;37.494;-8.758;2022-10-16T03:25:45;654.10;;;605.90;;
11845;SDS011;5982;37.494;-8.758;2022-10-16T03:28:13;650.15;;;602.10;;
11845;SDS011;5982;37.494;-8.758;2022-10-16T03:30:42;645.70;;;597.78;;
11845;SDS011;5982;37.494;-8.758;2022-10-16T03:33:11;655.00;;;606.88;;
11845;SDS011;5982;37.494;-8.758;2022-10-16T03:35:40;659.05;;;610.83;;
11845;SDS011;5982;37.494;-8.758;2022-10-16T03:38:08;649.93;;;601.93;;
11845;SDS011;5982;37.494;-8.758;2022-10-16T03:40:37;648.97;;;600.97;;
11845;SDS011;5982;37.494;-8.758;2022-10-16T03:43:05;645.45;;;597.45;;
11845;SDS011;5982;37.494;-8.758;2022-10-16T03:45:33;650.63;;;602.72;;
11845;SDS011;5982;37.494;-8.758;2022-10-16T03:48:01;649.80;;;601.80;;
11845;SDS011;5982;37.494;-8.758;2022-10-16T03:50:30;646.47;;;598.53;;
11845;SDS011;5982;37.494;-8.758;2022-10-16T03:52:59;655.47;;;607.47;;
11845;SDS011;5982;37.494;-8.758;2022-10-16T03:55:28;654.95;;;606.92;;
11845;SDS011;5982;37.494;-8.758;2022-10-16T03:57:56;663.28;;;614.92;;
11845;SDS011;5982;37.494;-8.758;2022-10-16T04:00:24;660.28;;;612.08;;
11845;SDS011;5982;37.494;-8.758;2022-10-16T04:02:52;658.13;;;609.83;;
11845;SDS011;5982;37.494;-8.758;2022-10-16T04:05:20;660.72;;;612.58;;
11845;SDS011;5982;37.494;-8.758;2022-10-16T04:07:48;650.88;;;602.83;;
11845;SDS011;5982;37.494;-8.758;2022-10-16T04:10:18;650.88;;;602.78;;
11845;SDS011;5982;37.494;-8.758;2022-10-16T04:12:46;659.65;;;611.35;;
11845;SDS011;5982;37.494;-8.758;2022-10-16T04:15:15;658.55;;;610.35;;
11845;SDS011;5982;37.494;-8.758;2022-10-16T04:17:43;657.22;;;609.13;;
11845;SDS011;5982;37.494;-8.758;2022-10-16T04:20:11;658.58;;;610.38;;
11845;SDS011;5982;37.494;-8.758;2022-10-16T04:22:39;650.63;;;602.53;;
11845;SDS011;5982;37.494;-8.758;2022-10-16T04:25:07;660.20;;;612.00;;
11845;SDS011;5982;37.494;-8.758;2022-10-16T04:27:38;664.63;;;616.25;;
11845;SDS011;5982;37.494;-8.758;2022-10-16T04:30:06;662.05;;;613.67;;
11845;SDS011;5982;37.494;-8.758;2022-10-16T04:32:35;660.67;;;612.50;;
11845;SDS011;5982;37.494;-8.758;2022-10-16T04:35:04;660.03;;;611.72;;
11845;SDS011;5982;37.494;-8.758;2022-10-16T04:37:33;653.78;;;605.72;;
11845;SDS011;5982;37.494;-8.758;2022-10-16T04:40:01;642.70;;;594.90;;
11845;SDS011;5982;37.494;-8.758;2022-10-16T04:42:30;656.70;;;608.50;;
11845;SDS011;5982;37.494;-8.758;2022-10-16T04:45:00;661.63;;;613.33;;
11845;SDS011;5982;37.494;-8.758;2022-10-16T04:47:28;655.15;;;606.95;;
11845;SDS011;5982;37.494;-8.758;2022-10-16T04:49:57;648.63;;;600.72;;
11845;SDS011;5982;37.494;-8.758;2022-10-16T04:52:27;656.47;;;608.35;;
11845;SDS011;5982;37.494;-8.758;2022-10-16T04:54:56;658.53;;;610.53;;
11845;SDS011;5982;37.494;-8.758;2022-10-16T04:57:27;663.80;;;615.40;;
11845;SDS011;5982;37.494;-8.758;2022-10-16T04:59:56;669.70;;;621.20;;
11845;SDS011;5982;37.494;-8.758;2022-10-16T05:02:25;659.60;;;611.47;;
11845;SDS011;5982;37.494;-8.758;2022-10-16T05:04:53;661.78;;;613.58;;
11845;SDS011;5982;37.494;-8.758;2022-10-16T05:07:22;656.47;;;608.33;;
11845;SDS011;5982;37.494;-8.758;2022-10-16T05:09:50;660.70;;;612.50;;
11845;SDS011;5982;37.494;-8.758;2022-10-16T05:12:18;659.20;;;611.10;;
11845;SDS011;5982;37.494;-8.758;2022-10-16T05:14:47;648.35;;;600.53;;
11845;SDS011;5982;37.494;-8.758;2022-10-16T05:17:15;661.42;;;613.22;;
11845;SDS011;5982;37.494;-8.758;2022-10-16T05:19:44;654.30;;;606.28;;
11845;SDS011;5982;37.494;-8.758;2022-10-16T05:22:13;665.05;;;616.67;;
11845;SDS011;5982;37.494;-8.758;2022-10-16T05:24:41;667.45;;;619.15;;
11845;SDS011;5982;37.494;-8.758;2022-10-16T05:27:09;669.47;;;621.13;;
11845;SDS011;5982;37.494;-8.758;2022-10-16T05:29:44;677.50;;;628.87;;
11845;SDS011;5982;37.494;-8.758;2022-10-16T05:32:13;687.22;;;638.38;;
11845;SDS011;5982;37.494;-8.758;2022-10-16T05:34:41;685.75;;;636.95;;
11845;SDS011;5982;37.494;-8.758;2022-10-16T05:37:12;678.45;;;629.75;;
11845;SDS011;5982;37.494;-8.758;2022-10-16T05:39:40;692.30;;;643.30;;
11845;SDS011;5982;37.494;-8.758;2022-10-16T05:42:08;701.05;;;651.80;;
11845;SDS011;5982;37.494;-8.758;2022-10-16T05:44:36;700.42;;;651.33;;
11845;SDS011;5982;37.494;-8.758;2022-10-16T05:47:04;697.30;;;648.13;;
11845;SDS011;5982;37.494;-8.758;2022-10-16T05:49:33;693.47;;;644.38;;
11845;SDS011;5982;37.494;-8.758;2022-10-16T05:52:02;689.77;;;640.93;;
11845;SDS011;5982;37.494;-8.758;2022-10-16T05:54:31;694.80;;;645.70;;
11845;SDS011;5982;37.494;-8.758;2022-10-16T05:56:59;677.47;;;628.85;;
11845;SDS011;5982;37.494;-8.758;2022-10-16T05:59:27;675.10;;;626.60;;
11845;SDS011;5982;37.494;-8.758;2022-10-16T06:01:55;667.93;;;619.57;;
11845;SDS011;5982;37.494;-8.758;2022-10-16T06:04:23;676.03;;;627.50;;
11845;SDS011;5982;37.494;-8.758;2022-10-16T06:06:52;668.15;;;619.83;;
11845;SDS011;5982;37.494;-8.758;2022-10-16T06:09:21;661.65;;;613.40;;
11845;SDS011;5982;37.494;-8.758;2022-10-16T06:11:49;661.65;;;613.38;;
11845;SDS011;5982;37.494;-8.758;2022-10-16T06:14:18;662.55;;;614.28;;
11845;SDS011;5982;37.494;-8.758;2022-10-16T06:16:46;661.42;;;612.97;;
11845;SDS011;5982;37.494;-8.758;2022-10-16T06:19:14;668.15;;;619.78;;
11845;SDS011;5982;37.494;-8.758;2022-10-16T06:21:42;657.50;;;609.40;;
11845;SDS011;5982;37.494;-8.758;2022-10-16T06:24:11;676.92;;;628.38;;
11845;SDS011;5982;37.494;-8.758;2022-10-16T06:26:41;678.70;;;630.10;;
11845;SDS011;5982;37.494;-8.758;2022-10-16T06:29:09;675.08;;;626.58;;
11845;SDS011;5982;37.494;-8.758;2022-10-16T06:31:37;666.72;;;618.38;;
11845;SDS011;5982;37.494;-8.758;2022-10-16T06:34:05;673.90;;;625.35;;
11845;SDS011;5982;37.494;-8.758;2022-10-16T06:36:36;677.43;;;628.87;;
11845;SDS011;5982;37.494;-8.758;2022-10-16T06:39:05;667.08;;;618.78;;
11845;SDS011;5982;37.494;-8.758;2022-10-16T06:41:33;675.20;;;626.60;;
11845;SDS011;5982;37.494;-8.758;2022-10-16T06:44:06;680.20;;;630.97;;
11845;SDS011;5982;37.494;-8.758;2022-10-16T06:46:34;675.22;;;626.58;;
11845;SDS011;5982;37.494;-8.758;2022-10-16T06:49:02;671.83;;;623.03;;
11845;SDS011;5982;37.494;-8.758;2022-10-16T06:51:31;674.72;;;626.20;;
11845;SDS011;5982;37.494;-8.758;2022-10-16T06:54:00;681.25;;;632.55;;
11845;SDS011;5982;37.494;-8.758;2022-10-16T06:56:29;679.63;;;630.97;;
11845;SDS011;5982;37.494;-8.758;2022-10-16T06:58:59;679.70;;;630.83;;
11845;SDS011;5982;37.494;-8.758;2022-10-16T07:01:29;678.10;;;629.45;;
11845;SDS011;5982;37.494;-8.758;2022-10-16T07:03:58;678.45;;;629.65;;
11845;SDS011;5982;37.494;-8.758;2022-10-16T07:06:27;681.77;;;632.93;;
11845;SDS011;5982;37.494;-8.758;2022-10-16T07:09:01;679.72;;;630.92;;
11845;SDS011;5982;37.494;-8.758;2022-10-16T07:11:34;680.58;;;631.90;;
11845;SDS011;5982;37.494;-8.758;2022-10-16T07:14:04;683.33;;;634.50;;
11845;SDS011;5982;37.494;-8.758;2022-10-16T07:16:41;680.45;;;631.85;;
11845;SDS011;5982;37.494;-8.758;2022-10-16T07:19:09;682.88;;;634.05;;
11845;SDS011;5982;37.494;-8.758;2022-10-16T07:21:39;691.00;;;641.95;;
11845;SDS011;5982;37.494;-8.758;2022-10-16T07:24:11;690.55;;;641.70;;
11845;SDS011;5982;37.494;-8.758;2022-10-16T07:26:42;706.35;;;657.05;;
11845;SDS011;5982;37.494;-8.758;2022-10-16T07:29:12;697.10;;;648.13;;
11845;SDS011;5982;37.494;-8.758;2022-10-16T07:31:43;701.33;;;652.30;;
11845;SDS011;5982;37.494;-8.758;2022-10-16T07:34:12;702.97;;;653.88;;
11845;SDS011;5982;37.494;-8.758;2022-10-16T07:36:42;697.85;;;649.05;;
11845;SDS011;5982;37.494;-8.758;2022-10-16T07:39:11;711.97;;;662.65;;
11845;SDS011;5982;37.494;-8.758;2022-10-16T07:41:39;719.13;;;669.63;;
11845;SDS011;5982;37.494;-8.758;2022-10-16T07:44:07;723.75;;;674.08;;
11845;SDS011;5982;37.494;-8.758;2022-10-16T07:46:35;725.00;;;675.47;;
11845;SDS011;5982;37.494;-8.758;2022-10-16T07:49:05;728.42;;;678.80;;
11845;SDS011;5982;37.494;-8.758;2022-10-16T07:51:33;725.75;;;676.08;;
11845;SDS011;5982;37.494;-8.758;2022-10-16T07:54:03;726.05;;;676.42;;
11845;SDS011;5982;37.494;-8.758;2022-10-16T07:56:31;739.20;;;689.30;;
11845;SDS011;5982;37.494;-8.758;2022-10-16T07:59:00;733.42;;;683.70;;
11845;SDS011;5982;37.494;-8.758;2022-10-16T08:01:28;725.80;;;676.30;;
11845;SDS011;5982;37.494;-8.758;2022-10-16T08:03:56;735.58;;;685.90;;
11845;SDS011;5982;37.494;-8.758;2022-10-16T08:06:26;743.03;;;693.03;;
11845;SDS011;5982;37.494;-8.758;2022-10-16T08:08:55;748.58;;;698.40;;
11845;SDS011;5982;37.494;-8.758;2022-10-16T08:11:25;742.90;;;692.90;;
11845;SDS011;5982;37.494;-8.758;2022-10-16T08:13:53;756.87;;;706.37;;
11845;SDS011;5982;37.494;-8.758;2022-10-16T08:16:21;756.90;;;706.42;;
11845;SDS011;5982;37.494;-8.758;2022-10-16T08:18:49;755.78;;;705.38;;
11845;SDS011;5982;37.494;-8.758;2022-10-16T08:21:18;762.53;;;712.10;;
11845;SDS011;5982;37.494;-8.758;2022-10-16T08:23:52;766.77;;;716.13;;
11845;SDS011;5982;37.494;-8.758;2022-10-16T08:26:21;784.80;;;733.80;;
11845;SDS011;5982;37.494;-8.758;2022-10-16T08:28:49;790.30;;;739.07;;
11845;SDS011;5982;37.494;-8.758;2022-10-16T08:31:18;795.58;;;744.28;;
11845;SDS011;5982;37.494;-8.758;2022-10-16T08:33:46;807.60;;;756.03;;
11845;SDS011;5982;37.494;-8.758;2022-10-16T08:36:15;812.70;;;761.00;;
11845;SDS011;5982;37.494;-8.758;2022-10-16T08:38:43;823.45;;;771.25;;
11845;SDS011;5982;37.494;-8.758;2022-10-16T08:41:20;827.65;;;775.40;;
11845;SDS011;5982;37.494;-8.758;2022-10-16T08:47:21;845.50;;;792.88;;
11845;SDS011;5982;37.494;-8.758;2022-10-16T08:49:55;849.95;;;797.17;;
11845;SDS011;5982;37.494;-8.758;2022-10-16T08:52:28;858.50;;;805.30;;
11845;SDS011;5982;37.494;-8.758;2022-10-16T08:55:01;870.88;;;817.28;;
11845;SDS011;5982;37.494;-8.758;2022-10-16T08:57:32;869.83;;;816.33;;
11845;SDS011;5982;37.494;-8.758;2022-10-16T09:00:05;883.10;;;829.30;;
11845;SDS011;5982;37.494;-8.758;2022-10-16T09:02:43;893.90;;;839.60;;
11845;SDS011;5982;37.494;-8.758;2022-10-16T09:08:46;921.28;;;866.08;;
11845;SDS011;5982;37.494;-8.758;2022-10-16T09:11:30;911.45;;;856.83;;
11845;SDS011;5982;37.494;-8.758;2022-10-16T09:14:17;934.20;;;878.53;;
11845;SDS011;5982;37.494;-8.758;2022-10-16T09:17:20;943.15;;;887.28;;
11845;SDS011;5982;37.494;-8.758;2022-10-16T09:20:03;942.72;;;886.83;;
11845;SDS011;5982;37.494;-8.758;2022-10-16T09:22:46;949.28;;;893.28;;
11845;SDS011;5982;37.494;-8.758;2022-10-16T09:25:15;947.75;;;891.85;;
11845;SDS011;5982;37.494;-8.758;2022-10-16T09:27:48;948.92;;;893.10;;
11845;SDS011;5982;37.494;-8.758;2022-10-16T09:30:21;957.63;;;901.30;;
11845;SDS011;5982;37.494;-8.758;2022-10-16T09:32:50;957.13;;;900.83;;
11845;SDS011;5982;37.494;-8.758;2022-10-16T09:35:20;964.97;;;908.13;;
11845;SDS011;5982;37.494;-8.758;2022-10-16T09:37:59;964.20;;;907.67;;
11845;SDS011;5982;37.494;-8.758;2022-10-16T09:40:28;959.10;;;902.75;;
11845;SDS011;5982;37.494;-8.758;2022-10-16T09:43:01;957.53;;;901.13;;
11845;SDS011;5982;37.494;-8.758;2022-10-16T09:45:54;952.95;;;896.72;;
11845;SDS011;5982;37.494;-8.758;2022-10-16T09:48:25;953.78;;;897.55;;
11845;SDS011;5982;37.494;-8.758;2022-10-16T09:51:00;947.83;;;891.83;;
11845;SDS011;5982;37.494;-8.758;2022-10-16T09:53:41;948.95;;;893.05;;
11845;SDS011;5982;37.494;-8.758;2022-10-16T09:56:11;945.35;;;889.60;;
11845;SDS011;5982;37.494;-8.758;2022-10-16T09:58:49;938.35;;;882.55;;
11845;SDS011;5982;37.494;-8.758;2022-10-16T10:01:20;941.03;;;885.17;;
11845;SDS011;5982;37.494;-8.758;2022-10-16T10:03:51;940.25;;;884.38;;
11845;SDS011;5982;37.494;-8.758;2022-10-16T10:06:28;930.65;;;875.13;;
11845;SDS011;5982;37.494;-8.758;2022-10-16T10:09:00;940.40;;;884.70;;
11845;SDS011;5982;37.494;-8.758;2022-10-16T10:11:37;933.25;;;877.72;;
11845;SDS011;5982;37.494;-8.758;2022-10-16T10:14:30;943.47;;;887.70;;
11845;SDS011;5982;37.494;-8.758;2022-10-16T10:17:14;934.40;;;878.95;;
11845;SDS011;5982;37.494;-8.758;2022-10-16T10:19:48;940.17;;;884.45;;
11845;SDS011;5982;37.494;-8.758;2022-10-16T10:22:22;943.55;;;887.83;;
11845;SDS011;5982;37.494;-8.758;2022-10-16T10:24:56;948.10;;;892.15;;
11845;SDS011;5982;37.494;-8.758;2022-10-16T10:27:36;963.92;;;907.45;;
11845;SDS011;5982;37.494;-8.758;2022-10-16T10:30:15;967.77;;;910.67;;
11845;SDS011;5982;37.494;-8.758;2022-10-16T10:32:54;969.35;;;912.63;;
11845;SDS011;5982;37.494;-8.758;2022-10-16T10:35:41;975.42;;;918.53;;
11845;SDS011;5982;37.494;-8.758;2022-10-16T10:38:22;979.67;;;922.38;;
11845;SDS011;5982;37.494;-8.758;2022-10-16T10:41:03;991.10;;;933.35;;
11845;SDS011;5982;37.494;-8.758;2022-10-16T10:43:54;998.65;;;940.85;;
11845;SDS011;5982;37.494;-8.758;2022-10-16T10:46:34;996.95;;;939.25;;
11845;SDS011;5982;37.494;-8.758;2022-10-16T10:49:16;1003.45;;;945.33;;
11845;SDS011;5982;37.494;-8.758;2022-10-16T10:52:07;1007.10;;;948.47;;
11845;SDS011;5982;37.494;-8.758;2022-10-16T10:54:58;1023.45;;;964.70;;
11845;SDS011;5982;37.494;-8.758;2022-10-16T10:57:40;1024.70;;;965.80;;
11845;SDS011;5982;37.494;-8.758;2022-10-16T11:00:26;1027.68;;;968.35;;
11845;SDS011;5982;37.494;-8.758;2022-10-16T11:03:08;1028.72;;;969.47;;
11845;SDS011;5982;37.494;-8.758;2022-10-16T11:06:02;1036.55;;;977.05;;
11845;SDS011;5982;37.494;-8.758;2022-10-16T11:08:35;1039.30;;;979.65;;
11845;SDS011;5982;37.494;-8.758;2022-10-16T11:11:09;1039.95;;;980.33;;
11845;SDS011;5982;37.494;-8.758;2022-10-16T11:13:43;1044.10;;;984.30;;
11845;SDS011;5982;37.494;-8.758;2022-10-16T11:16:21;1033.72;;;974.45;;
11845;SDS011;5982;37.494;-8.758;2022-10-16T11:18:56;1041.10;;;981.38;;
11845;SDS011;5982;37.494;-8.758;2022-10-16T11:21:31;1035.18;;;975.63;;
11845;SDS011;5982;37.494;-8.758;2022-10-16T11:24:11;1030.00;;;970.70;;
11845;SDS011;5982;37.494;-8.758;2022-10-16T11:26:47;1031.85;;;972.65;;
11845;SDS011;5982;37.494;-8.758;2022-10-16T11:29:20;1030.07;;;970.70;;
11845;SDS011;5982;37.494;-8.758;2022-10-16T11:31:54;1030.22;;;971.03;;
11845;SDS011;5982;37.494;-8.758;2022-10-16T11:34:28;1029.20;;;970.15;;
11845;SDS011;5982;37.494;-8.758;2022-10-16T11:37:05;1034.40;;;975.03;;
11845;SDS011;5982;37.494;-8.758;2022-10-16T11:39:38;1029.95;;;970.78;;
11845;SDS011;5982;37.494;-8.758;2022-10-16T11:42:09;1028.63;;;969.35;;
11845;SDS011;5982;37.494;-8.758;2022-10-16T11:44:50;1021.10;;;962.08;;
11845;SDS011;5982;37.494;-8.758;2022-10-16T11:47:28;1017.77;;;958.87;;
11845;SDS011;5982;37.494;-8.758;2022-10-16T11:50:02;1014.25;;;955.58;;
11845;SDS011;5982;37.494;-8.758;2022-10-16T11:52:43;1013.75;;;954.83;;
11845;SDS011;5982;37.494;-8.758;2022-10-16T11:55:23;1010.85;;;951.80;;
11845;SDS011;5982;37.494;-8.758;2022-10-16T11:57:59;1010.80;;;951.75;;
11845;SDS011;5982;37.494;-8.758;2022-10-16T12:00:34;1008.13;;;949.72;;
11845;SDS011;5982;37.494;-8.758;2022-10-16T12:03:11;1007.00;;;948.33;;
11845;SDS011;5982;37.494;-8.758;2022-10-16T12:05:51;1005.83;;;947.40;;
11845;SDS011;5982;37.494;-8.758;2022-10-16T12:08:30;1011.13;;;952.10;;
11845;SDS011;5982;37.494;-8.758;2022-10-16T12:11:08;1007.88;;;949.40;;
11845;SDS011;5982;37.494;-8.758;2022-10-16T12:13:50;1008.88;;;949.78;;
11845;SDS011;5982;37.494;-8.758;2022-10-16T12:16:22;996.03;;;937.33;;
11845;SDS011;5982;37.494;-8.758;2022-10-16T12:19:02;996.92;;;938.30;;
11845;SDS011;5982;37.494;-8.758;2022-10-16T12:21:39;986.95;;;928.35;;
11845;SDS011;5982;37.494;-8.758;2022-10-16T12:24:19;983.35;;;925.35;;
11845;SDS011;5982;37.494;-8.758;2022-10-16T12:27:19;972.90;;;915.33;;
11845;SDS011;5982;37.494;-8.758;2022-10-16T12:29:54;965.33;;;907.97;;
11845;SDS011;5982;37.494;-8.758;2022-10-16T12:32:28;961.20;;;904.42;;
11845;SDS011;5982;37.494;-8.758;2022-10-16T12:34:59;961.10;;;903.83;;
11845;SDS011;5982;37.494;-8.758;2022-10-16T12:37:29;954.67;;;897.67;;
11845;SDS011;5982;37.494;-8.758;2022-10-16T12:40:12;945.38;;;888.70;;
11845;SDS011;5982;37.494;-8.758;2022-10-16T12:42:41;946.35;;;889.40;;
11845;SDS011;5982;37.494;-8.758;2022-10-16T12:45:21;944.53;;;887.60;;
11845;SDS011;5982;37.494;-8.758;2022-10-16T12:47:58;938.35;;;881.70;;
11845;SDS011;5982;37.494;-8.758;2022-10-16T12:50:31;936.55;;;879.70;;
11845;SDS011;5982;37.494;-8.758;2022-10-16T12:53:02;943.72;;;886.67;;
11845;SDS011;5982;37.494;-8.758;2022-10-16T12:55:48;934.75;;;878.08;;
11845;SDS011;5982;37.494;-8.758;2022-10-16T12:58:30;934.75;;;878.50;;
11845;SDS011;5982;37.494;-8.758;2022-10-16T13:01:17;938.03;;;881.70;;
11845;SDS011;5982;37.494;-8.758;2022-10-16T13:04:02;941.92;;;885.03;;
11845;SDS011;5982;37.494;-8.758;2022-10-16T13:07:20;942.92;;;886.60;;
11845;SDS011;5982;37.494;-8.758;2022-10-16T13:10:08;950.60;;;894.05;;
11845;SDS011;5982;37.494;-8.758;2022-10-16T13:15:53;975.53;;;917.85;;
11845;SDS011;5982;37.494;-8.758;2022-10-16T13:18:38;966.75;;;909.70;;
11845;SDS011;5982;37.494;-8.758;2022-10-16T13:21:20;967.60;;;910.10;;
11845;SDS011;5982;37.494;-8.758;2022-10-16T13:24:02;970.78;;;913.17;;
11845;SDS011;5982;37.494;-8.758;2022-10-16T13:26:49;982.58;;;924.53;;
11845;SDS011;5982;37.494;-8.758;2022-10-16T13:29:24;980.65;;;922.78;;
11845;SDS011;5982;37.494;-8.758;2022-10-16T13:31:58;981.10;;;923.45;;
11845;SDS011;5982;37.494;-8.758;2022-10-16T13:34:28;974.58;;;917.00;;
11845;SDS011;5982;37.494;-8.758;2022-10-16T13:36:56;977.10;;;919.57;;
11845;SDS011;5982;37.494;-8.758;2022-10-16T13:39:25;978.35;;;920.35;;
11845;SDS011;5982;37.494;-8.758;2022-10-16T13:42:03;974.83;;;917.13;;
11845;SDS011;5982;37.494;-8.758;2022-10-16T13:44:39;973.17;;;915.50;;
11845;SDS011;5982;37.494;-8.758;2022-10-16T13:47:14;965.10;;;907.50;;
11845;SDS011;5982;37.494;-8.758;2022-10-16T13:49:45;961.92;;;904.17;;
11845;SDS011;5982;37.494;-8.758;2022-10-16T13:52:17;958.65;;;901.25;;
11845;SDS011;5982;37.494;-8.758;2022-10-16T13:54:47;960.40;;;903.07;;
11845;SDS011;5982;37.494;-8.758;2022-10-16T13:57:16;962.83;;;905.75;;
11845;SDS011;5982;37.494;-8.758;2022-10-16T13:59:46;948.30;;;891.70;;
11845;SDS011;5982;37.494;-8.758;2022-10-16T14:02:17;943.35;;;887.20;;
11845;SDS011;5982;37.494;-8.758;2022-10-16T14:04:51;940.15;;;883.70;;
11845;SDS011;5982;37.494;-8.758;2022-10-16T14:07:22;936.77;;;880.63;;
11845;SDS011;5982;37.494;-8.758;2022-10-16T14:09:53;934.03;;;878.05;;
11845;SDS011;5982;37.494;-8.758;2022-10-16T14:12:22;928.28;;;872.08;;
11845;SDS011;5982;37.494;-8.758;2022-10-16T14:14:53;919.72;;;864.03;;
11845;SDS011;5982;37.494;-8.758;2022-10-16T14:17:23;924.28;;;868.47;;
11845;SDS011;5982;37.494;-8.758;2022-10-16T14:19:55;912.75;;;857.35;;
11845;SDS011;5982;37.494;-8.758;2022-10-16T14:22:28;918.88;;;863.35;;
11845;SDS011;5982;37.494;-8.758;2022-10-16T14:24:58;921.03;;;865.30;;
11845;SDS011;5982;37.494;-8.758;2022-10-16T14:27:29;917.13;;;861.47;;
11845;SDS011;5982;37.494;-8.758;2022-10-16T14:30:16;922.73;;;867.13;;
11845;SDS011;5982;37.494;-8.758;2022-10-16T14:32:54;924.95;;;869.38;;
11845;SDS011;5982;37.494;-8.758;2022-10-16T14:35:25;920.35;;;864.80;;
11845;SDS011;5982;37.494;-8.758;2022-10-16T14:37:56;918.10;;;862.80;;